Aérodrome :
LOGIN :

S'inscrire | Disclaimer

   EN    FR    IT 

 










Légende :    VFR   VFR Marginal   IFR   IFR Intensif   IFR Très Intensif
Visi : 
Plafond : 
>= 8 km
>= 3000ft
5 à 8 km
1000 à 3000 ft
1500m à 5 km
500 à 1000 ft
800 à 1500m
200 à 500 ft
< 800m
< 200 ft
Symboles :   Orages  Brouillard  Fortes neiges  Fortes précipitations  Vent > 20 kt
SIGMETs :   Divers  Orages  Givrage  Turbulence  Onde Orograph.  Cendres Volcan.






- Altitude de l'aérodrome : 1090 ft
- Code IATA : CFE


LFLC - Clermont-Ferrand Auvergne

DERNIER METAR :
  • 241730Z AUTO 35003KT 300V090 9999 FEW012/// BKN068/// OVC088/// ///CB 15/09 Q1013 TEMPO 4000 SHRA

METARs EXPIRÉS :
  • 241700Z AUTO 31007KT 280V340 9999 SCT049/// SCT066/// BKN078/// ///TCU 16/08 Q1012 TEMPO 4000 SHRA
  • 241630Z AUTO 31011KT 280V350 9999 FEW044/// BKN068/// BKN100/// ///CB 17/07 Q1012 TEMPO 4000 SHRA
  • 241600Z AUTO 33009KT 270V020 9999 BKN066/// BKN078/// BKN096/// ///CB 19/07 Q1011 TEMPO 4000 SHRA
  • 241530Z AUTO VRB03KT 9999 BKN062/// BKN072/// BKN088/// ///TCU 19/05 Q1011 TEMPO 4000 SHRA
  • 241500Z AUTO VRB03KT 9999 BKN062 BKN072 OVC100 20/05 Q1011 TEMPO 4000 SHRA BKN025TCU

TAF TAF LFLC
Valide du 24 à 18h jusqu'au 25 à 18h UTC


241700Z 2418/2518 34008KT 9999 BKN050
PROB40
TEMPO 2418/2421 4000 SHRA FEW035CB BKN040TCU
TEMPO 2420/2508 VRB03KT
ATIS : +33 4 73 62 74 38



MET'MAP, la Météo Aéronautique d'un coup d'oeil ! - Copyright ORBIFLY Décembre 2007 - Disclaimer

ORBIFLY MET'MAP TEAM :

Programmation & Développement : Alexandra Zaïnal
Sur une idée originale de : Baudouin d'Aumeries
Soutien technique & logistique : Manuel Goepfert
Assistance : Marc-Olivier Méhu

Contact : metmap@orbifly.com




SOURCES & CREDITS :

   NOAA